Toms River, New Jersey
Current Conditions -  °F | °C
As of 5:35 PM on Monday 24 Nov 2014 (Local Time) from KMJX Reporting Station
Clear Clear  
Wind Chill: 64°   Ceiling: Unl
Heat Index: 64°   Visibility: 10mi
Dew Point: 57°   Wind: 8mph
Humidity: 77%   Direction: 210°SSW
Pressure: 29.7"   Gusts: NA
Location:  39.95°N, 74.19°W
Report Text: KMJX 242235Z AUTO 21007KT 10SM CLR 18/14 A2970 RMK AO1
Loading
Personal Weather Stations






























Interactive Weather Map New forecast layout! Learn more

10-Day Weather Forecast

Advertisements
Track Severe Weather on mobile